sensor_id;sensor_type;location;lat;lon;timestamp;pressure;altitude;pressure_sealevel;temperature;humidity
11212;BME280;5663;50.864;12.096;2023-07-13T00:05:18;99074.69;;;23.06;48.25
11212;BME280;5663;50.864;12.096;2023-07-13T00:07:49;99098.72;;;23.13;48.48
11212;BME280;5663;50.864;12.096;2023-07-13T00:10:22;99092.59;;;23.04;48.63
11212;BME280;5663;50.864;12.096;2023-07-13T00:12:58;99105.84;;;23.13;49.03
11212;BME280;5663;50.864;12.096;2023-07-13T00:16:10;99108.50;;;23.13;48.88
11212;BME280;5663;50.864;12.096;2023-07-13T00:18:41;99117.66;;;23.10;48.75
11212;BME280;5663;50.864;12.096;2023-07-13T00:21:15;99082.75;;;22.88;48.49
11212;BME280;5663;50.864;12.096;2023-07-13T00:23:51;99125.75;;;23.08;48.60
11212;BME280;5663;50.864;12.096;2023-07-13T00:26:20;99086.63;;;22.94;48.54
11212;BME280;5663;50.864;12.096;2023-07-13T00:28:52;99113.81;;;23.04;48.66
11212;BME280;5663;50.864;12.096;2023-07-13T00:31:23;99116.63;;;23.03;48.89
11212;BME280;5663;50.864;12.096;2023-07-13T00:34:03;99121.44;;;22.99;49.07
11212;BME280;5663;50.864;12.096;2023-07-13T00:36:37;99128.06;;;23.03;48.70
11212;BME280;5663;50.864;12.096;2023-07-13T00:39:14;99106.50;;;22.90;48.88
11212;BME280;5663;50.864;12.096;2023-07-13T00:41:54;99045.41;;;22.49;49.08
11212;BME280;5663;50.864;12.096;2023-07-13T00:44:23;99093.19;;;22.82;49.34
11212;BME280;5663;50.864;12.096;2023-07-13T00:46:53;99108.47;;;22.88;49.54
11212;BME280;5663;50.864;12.096;2023-07-13T00:49:25;99108.47;;;22.88;49.33
11212;BME280;5663;50.864;12.096;2023-07-13T00:52:03;99107.44;;;22.89;49.42
11212;BME280;5663;50.864;12.096;2023-07-13T00:54:43;99101.13;;;22.82;49.65
11212;BME280;5663;50.864;12.096;2023-07-13T00:57:19;99103.66;;;22.83;49.60
11212;BME280;5663;50.864;12.096;2023-07-13T00:59:57;99090.53;;;22.82;49.63
11212;BME280;5663;50.864;12.096;2023-07-13T01:02:29;99093.19;;;22.82;49.69
11212;BME280;5663;50.864;12.096;2023-07-13T01:05:01;99096.84;;;22.81;50.01
11212;BME280;5663;50.864;12.096;2023-07-13T01:07:38;99101.81;;;22.76;50.20
11212;BME280;5663;50.864;12.096;2023-07-13T01:10:38;99102.13;;;22.73;50.37
11212;BME280;5663;50.864;12.096;2023-07-13T01:13:10;99093.00;;;22.59;50.09
11212;BME280;5663;50.864;12.096;2023-07-13T01:15:50;99110.06;;;22.73;49.92
11212;BME280;5663;50.864;12.096;2023-07-13T01:18:24;99115.56;;;22.71;50.28
11212;BME280;5663;50.864;12.096;2023-07-13T01:20:58;99118.03;;;22.73;50.12
11212;BME280;5663;50.864;12.096;2023-07-13T01:23:30;99108.25;;;22.65;50.07
11212;BME280;5663;50.864;12.096;2023-07-13T01:26:19;99093.00;;;22.59;50.18
11212;BME280;5663;50.864;12.096;2023-07-13T01:29:08;99115.69;;;22.70;50.18
11212;BME280;5663;50.864;12.096;2023-07-13T01:31:38;99112.06;;;22.71;50.39
11212;BME280;5663;50.864;12.096;2023-07-13T01:34:12;99111.06;;;22.63;50.55
11212;BME280;5663;50.864;12.096;2023-07-13T01:36:44;99099.75;;;22.53;50.67
11212;BME280;5663;50.864;12.096;2023-07-13T01:39:15;99108.69;;;22.52;50.81
11212;BME280;5663;50.864;12.096;2023-07-13T01:41:50;99106.53;;;22.48;50.76
11212;BME280;5663;50.864;12.096;2023-07-13T01:44:46;99109.69;;;22.43;50.85
11212;BME280;5663;50.864;12.096;2023-07-13T01:47:22;99085.56;;;22.20;51.33
11212;BME280;5663;50.864;12.096;2023-07-13T01:50:18;99088.00;;;22.13;51.30
11212;BME280;5663;50.864;12.096;2023-07-13T01:53:17;99107.63;;;22.29;51.50
11212;BME280;5663;50.864;12.096;2023-07-13T01:56:06;99097.69;;;22.23;51.46
11212;BME280;5663;50.864;12.096;2023-07-13T01:58:59;99077.00;;;22.00;51.65
11212;BME280;5663;50.864;12.096;2023-07-13T02:01:33;99068.03;;;21.93;52.19
11212;BME280;5663;50.864;12.096;2023-07-13T02:04:08;99090.94;;;22.02;52.10
11212;BME280;5663;50.864;12.096;2023-07-13T02:06:50;99092.22;;;21.98;52.11
11212;BME280;5663;50.864;12.096;2023-07-13T02:09:20;99096.84;;;21.96;52.10
11212;BME280;5663;50.864;12.096;2023-07-13T02:11:50;99099.50;;;21.96;52.33
11212;BME280;5663;50.864;12.096;2023-07-13T02:14:21;99106.63;;;21.96;52.24
11212;BME280;5663;50.864;12.096;2023-07-13T02:16:51;99088.19;;;21.86;52.96
11212;BME280;5663;50.864;12.096;2023-07-13T02:19:24;99100.78;;;21.92;53.10
11212;BME280;5663;50.864;12.096;2023-07-13T02:21:54;99078.41;;;21.78;53.14
11212;BME280;5663;50.864;12.096;2023-07-13T02:24:30;99097.94;;;21.85;53.16
11212;BME280;5663;50.864;12.096;2023-07-13T02:27:01;99101.09;;;21.89;53.02
11212;BME280;5663;50.864;12.096;2023-07-13T02:29:34;99112.53;;;21.89;53.67
11212;BME280;5663;50.864;12.096;2023-07-13T02:32:09;99092.06;;;21.74;53.44
11212;BME280;5663;50.864;12.096;2023-07-13T02:34:41;99110.16;;;21.78;53.55
11212;BME280;5663;50.864;12.096;2023-07-13T02:37:11;99113.81;;;21.85;53.37
11212;BME280;5663;50.864;12.096;2023-07-13T02:39:46;99106.72;;;21.86;53.40
11212;BME280;5663;50.864;12.096;2023-07-13T02:42:19;99119.28;;;21.84;53.84
11212;BME280;5663;50.864;12.096;2023-07-13T02:44:52;99117.41;;;21.76;53.97
11212;BME280;5663;50.864;12.096;2023-07-13T02:47:21;99116.06;;;21.72;53.85
11212;BME280;5663;50.864;12.096;2023-07-13T02:49:50;99114.41;;;21.71;53.66
11212;BME280;5663;50.864;12.096;2023-07-13T02:52:22;99122.50;;;21.70;54.13
11212;BME280;5663;50.864;12.096;2023-07-13T02:55:03;99123.97;;;21.64;53.72
11212;BME280;5663;50.864;12.096;2023-07-13T02:57:44;99122.09;;;21.56;53.74
11212;BME280;5663;50.864;12.096;2023-07-13T03:00:23;99123.06;;;21.55;53.73
11212;BME280;5663;50.864;12.096;2023-07-13T03:02:59;99124.66;;;21.48;54.26
11212;BME280;5663;50.864;12.096;2023-07-13T03:05:29;99138.13;;;21.37;54.44
11212;BME280;5663;50.864;12.096;2023-07-13T03:08:03;99131.09;;;21.28;54.68
11212;BME280;5663;50.864;12.096;2023-07-13T03:10:45;99124.91;;;21.19;54.86
11212;BME280;5663;50.864;12.096;2023-07-13T03:13:28;99127.69;;;21.17;54.58
11212;BME280;5663;50.864;12.096;2023-07-13T03:15:58;99138.88;;;21.11;55.05
11212;BME280;5663;50.864;12.096;2023-07-13T03:18:33;99118.25;;;20.97;55.11
11212;BME280;5663;50.864;12.096;2023-07-13T03:21:02;99148.41;;;21.04;54.97
11212;BME280;5663;50.864;12.096;2023-07-13T03:23:34;99158.97;;;21.04;55.14
11212;BME280;5663;50.864;12.096;2023-07-13T03:26:08;99166.22;;;21.02;55.60
11212;BME280;5663;50.864;12.096;2023-07-13T03:28:38;99174.13;;;21.02;55.25
11212;BME280;5663;50.864;12.096;2023-07-13T03:31:12;99173.75;;;20.97;55.42
11212;BME280;5663;50.864;12.096;2023-07-13T03:33:51;99169.63;;;20.95;55.58
11212;BME280;5663;50.864;12.096;2023-07-13T03:36:25;99181.63;;;20.89;55.52
11212;BME280;5663;50.864;12.096;2023-07-13T03:38:56;99181.06;;;20.85;55.72
11212;BME280;5663;50.864;12.096;2023-07-13T03:41:30;99177.50;;;20.77;55.85
11212;BME280;5663;50.864;12.096;2023-07-13T03:44:00;99182.41;;;20.72;56.12
11212;BME280;5663;50.864;12.096;2023-07-13T03:46:30;99190.63;;;20.69;56.05
11212;BME280;5663;50.864;12.096;2023-07-13T03:48:59;99186.03;;;20.71;56.11
11212;BME280;5663;50.864;12.096;2023-07-13T03:51:28;99177.81;;;20.74;56.10
11212;BME280;5663;50.864;12.096;2023-07-13T03:53:58;99175.84;;;20.76;55.90
11212;BME280;5663;50.864;12.096;2023-07-13T03:56:32;99178.34;;;20.77;55.88
11212;BME280;5663;50.864;12.096;2023-07-13T03:59:01;99185.16;;;20.80;55.91
11212;BME280;5663;50.864;12.096;2023-07-13T04:01:31;99181.22;;;20.84;55.40
11212;BME280;5663;50.864;12.096;2023-07-13T04:04:01;99185.25;;;20.88;55.80
11212;BME280;5663;50.864;12.096;2023-07-13T04:06:30;99184.97;;;20.91;55.74
11212;BME280;5663;50.864;12.096;2023-07-13T04:09:05;99180.78;;;20.88;55.98
11212;BME280;5663;50.864;12.096;2023-07-13T04:11:36;99189.25;;;20.92;56.20
11212;BME280;5663;50.864;12.096;2023-07-13T04:14:10;99153.16;;;20.83;55.73
11212;BME280;5663;50.864;12.096;2023-07-13T04:16:39;99177.31;;;21.06;55.01
11212;BME280;5663;50.864;12.096;2023-07-13T04:19:12;99185.28;;;21.24;54.25
11212;BME280;5663;50.864;12.096;2023-07-13T04:21:44;99191.63;;;21.31;53.57
11212;BME280;5663;50.864;12.096;2023-07-13T04:24:13;99188.78;;;21.42;53.10
11212;BME280;5663;50.864;12.096;2023-07-13T04:34:35;99187.00;;;21.69;51.41
11212;BME280;5663;50.864;12.096;2023-07-13T04:45:47;99192.63;;;21.65;51.15
11212;BME280;5663;50.864;12.096;2023-07-13T04:48:24;99194.59;;;21.63;50.91
11212;BME280;5663;50.864;12.096;2023-07-13T04:50:59;99176.31;;;21.52;51.12
11212;BME280;5663;50.864;12.096;2023-07-13T04:53:31;99190.66;;;21.68;51.24
11212;BME280;5663;50.864;12.096;2023-07-13T04:56:05;99197.59;;;21.69;51.51
11212;BME280;5663;50.864;12.096;2023-07-13T04:58:41;99199.25;;;21.70;51.18
11212;BME280;5663;50.864;12.096;2023-07-13T05:01:12;99203.25;;;21.74;51.13
11212;BME280;5663;50.864;12.096;2023-07-13T05:03:50;99204.63;;;21.78;50.89
11212;BME280;5663;50.864;12.096;2023-07-13T05:07:08;99207.13;;;21.79;50.45
11212;BME280;5663;50.864;12.096;2023-07-13T05:09:50;99180.72;;;21.70;50.34
11212;BME280;5663;50.864;12.096;2023-07-13T05:12:33;99212.31;;;21.89;50.50
11212;BME280;5663;50.864;12.096;2023-07-13T05:15:24;99205.38;;;22.40;50.84
11212;BME280;5663;50.864;12.096;2023-07-13T05:18:08;99207.97;;;23.00;49.21
11212;BME280;5663;50.864;12.096;2023-07-13T05:21:03;99206.41;;;23.65;47.87
11212;BME280;5663;50.864;12.096;2023-07-13T05:23:43;99217.50;;;24.17;46.51
11212;BME280;5663;50.864;12.096;2023-07-13T05:26:22;99202.41;;;25.04;45.24
11212;BME280;5663;50.864;12.096;2023-07-13T05:29:09;99215.44;;;26.14;42.84
11212;BME280;5663;50.864;12.096;2023-07-13T05:31:46;99218.53;;;27.07;41.51
11212;BME280;5663;50.864;12.096;2023-07-13T05:34:23;99212.81;;;27.89;39.75
11212;BME280;5663;50.864;12.096;2023-07-13T05:36:57;99220.28;;;28.63;38.59
11212;BME280;5663;50.864;12.096;2023-07-13T05:39:57;99218.53;;;29.38;36.76
11212;BME280;5663;50.864;12.096;2023-07-13T05:42:36;99221.69;;;29.81;35.77
11212;BME280;5663;50.864;12.096;2023-07-13T05:45:13;99220.03;;;30.27;35.30
11212;BME280;5663;50.864;12.096;2023-07-13T05:47:44;99230.47;;;30.55;34.83
11212;BME280;5663;50.864;12.096;2023-07-13T05:50:31;99226.47;;;30.90;33.93
11212;BME280;5663;50.864;12.096;2023-07-13T05:53:03;99231.56;;;31.05;34.10
11212;BME280;5663;50.864;12.096;2023-07-13T05:55:37;99225.44;;;31.36;33.81
11212;BME280;5663;50.864;12.096;2023-07-13T05:58:25;99230.47;;;31.51;33.79
11212;BME280;5663;50.864;12.096;2023-07-13T06:01:05;99229.50;;;31.71;32.72
11212;BME280;5663;50.864;12.096;2023-07-13T06:03:44;99224.81;;;31.91;32.06
11212;BME280;5663;50.864;12.096;2023-07-13T06:06:21;99231.47;;;31.88;32.26
11212;BME280;5663;50.864;12.096;2023-07-13T06:08:51;99223.94;;;31.97;32.63
11212;BME280;5663;50.864;12.096;2023-07-13T06:11:32;99223.34;;;32.20;31.13
11212;BME280;5663;50.864;12.096;2023-07-13T06:14:09;99220.63;;;32.38;31.69
11212;BME280;5663;50.864;12.096;2023-07-13T06:25:02;99238.06;;;31.93;31.38
11212;BME280;5663;50.864;12.096;2023-07-13T06:27:43;99240.56;;;31.56;31.54
11212;BME280;5663;50.864;12.096;2023-07-13T06:34:40;99218.56;;;30.11;34.50
11212;BME280;5663;50.864;12.096;2023-07-13T06:37:38;99243.75;;;29.77;34.53
11212;BME280;5663;50.864;12.096;2023-07-13T06:40:09;99247.47;;;29.82;33.90
11212;BME280;5663;50.864;12.096;2023-07-13T06:42:42;99242.84;;;29.56;33.90
11212;BME280;5663;50.864;12.096;2023-07-13T06:45:18;99251.78;;;29.57;35.14
11212;BME280;5663;50.864;12.096;2023-07-13T06:47:48;99257.75;;;29.59;34.64
11212;BME280;5663;50.864;12.096;2023-07-13T06:50:18;99222.19;;;29.17;34.76
11212;BME280;5663;50.864;12.096;2023-07-13T06:53:00;99258.84;;;29.10;34.98
11212;BME280;5663;50.864;12.096;2023-07-13T06:55:47;99269.38;;;28.77;35.46
11212;BME280;5663;50.864;12.096;2023-07-13T06:58:19;99269.97;;;28.37;35.67
11212;BME280;5663;50.864;12.096;2023-07-13T07:00:52;99278.34;;;28.06;36.31
11212;BME280;5663;50.864;12.096;2023-07-13T07:03:21;99285.81;;;27.89;36.46
11212;BME280;5663;50.864;12.096;2023-07-13T07:05:50;99279.75;;;27.81;36.49
11212;BME280;5663;50.864;12.096;2023-07-13T07:08:21;99283.56;;;27.71;36.21
11212;BME280;5663;50.864;12.096;2023-07-13T07:11:08;99277.84;;;27.53;36.79
11212;BME280;5663;50.864;12.096;2023-07-13T07:14:05;99273.09;;;27.34;37.31
11212;BME280;5663;50.864;12.096;2023-07-13T07:16:38;99271.19;;;27.13;36.78
11212;BME280;5663;50.864;12.096;2023-07-13T07:19:16;99285.75;;;26.95;37.15
11212;BME280;5663;50.864;12.096;2023-07-13T07:21:52;99281.53;;;26.86;37.81
11212;BME280;5663;50.864;12.096;2023-07-13T07:24:26;99275.63;;;26.76;37.63
11212;BME280;5663;50.864;12.096;2023-07-13T07:26:56;99280.03;;;26.69;37.38
11212;BME280;5663;50.864;12.096;2023-07-13T07:29:54;99289.06;;;26.68;37.63
11212;BME280;5663;50.864;12.096;2023-07-13T07:32:30;99286.22;;;26.55;37.40
11212;BME280;5663;50.864;12.096;2023-07-13T07:34:59;99280.16;;;26.46;37.77
11212;BME280;5663;50.864;12.096;2023-07-13T07:37:29;99284.66;;;26.45;38.44
11212;BME280;5663;50.864;12.096;2023-07-13T07:40:00;99284.47;;;26.47;38.59
11212;BME280;5663;50.864;12.096;2023-07-13T07:42:35;99288.28;;;26.44;38.21
11212;BME280;5663;50.864;12.096;2023-07-13T07:45:12;99281.66;;;26.40;39.12
11212;BME280;5663;50.864;12.096;2023-07-13T07:47:46;99288.06;;;26.54;38.75
11212;BME280;5663;50.864;12.096;2023-07-13T07:50:19;99283.91;;;26.51;39.53
11212;BME280;5663;50.864;12.096;2023-07-13T07:52:53;99287.59;;;26.50;39.00
11212;BME280;5663;50.864;12.096;2023-07-13T07:55:23;99279.00;;;26.40;39.11
11212;BME280;5663;50.864;12.096;2023-07-13T07:57:54;99286.63;;;26.43;39.20
11212;BME280;5663;50.864;12.096;2023-07-13T08:00:36;99280.97;;;26.46;39.13
11212;BME280;5663;50.864;12.096;2023-07-13T08:03:05;99274.53;;;26.56;39.34
11212;BME280;5663;50.864;12.096;2023-07-13T08:05:35;99245.59;;;26.44;38.68
11212;BME280;5663;50.864;12.096;2023-07-13T08:08:06;99281.50;;;26.57;38.44
11212;BME280;5663;50.864;12.096;2023-07-13T08:10:35;99285.94;;;26.49;38.33
11212;BME280;5663;50.864;12.096;2023-07-13T08:13:05;99282.72;;;26.54;38.73
11212;BME280;5663;50.864;12.096;2023-07-13T08:15:36;99285.69;;;26.74;37.95
11212;BME280;5663;50.864;12.096;2023-07-13T08:18:08;99284.81;;;26.88;38.29
11212;BME280;5663;50.864;12.096;2023-07-13T08:20:37;99278.00;;;27.00;37.04
11212;BME280;5663;50.864;12.096;2023-07-13T08:23:09;99286.31;;;27.06;37.49
11212;BME280;5663;50.864;12.096;2023-07-13T08:25:39;99278.84;;;27.16;37.69
11212;BME280;5663;50.864;12.096;2023-07-13T08:28:08;99284.25;;;27.37;38.23
11212;BME280;5663;50.864;12.096;2023-07-13T08:30:39;99281.44;;;27.45;38.20
11212;BME280;5663;50.864;12.096;2023-07-13T08:33:09;99279.84;;;27.51;37.68
11212;BME280;5663;50.864;12.096;2023-07-13T08:35:38;99286.03;;;27.51;38.05
11212;BME280;5663;50.864;12.096;2023-07-13T08:38:07;99279.84;;;27.51;38.59
11212;BME280;5663;50.864;12.096;2023-07-13T08:40:35;99272.78;;;27.43;38.04
11212;BME280;5663;50.864;12.096;2023-07-13T08:43:03;99292.78;;;27.69;38.62
11212;BME280;5663;50.864;12.096;2023-07-13T08:45:42;99280.97;;;27.78;37.64
11212;BME280;5663;50.864;12.096;2023-07-13T08:48:17;99292.13;;;27.82;36.99
11212;BME280;5663;50.864;12.096;2023-07-13T08:50:59;99285.00;;;27.89;37.44
11212;BME280;5663;50.864;12.096;2023-07-13T08:57:34;99277.84;;;28.45;37.03
11212;BME280;5663;50.864;12.096;2023-07-13T09:00:10;99287.25;;;28.69;36.54
11212;BME280;5663;50.864;12.096;2023-07-13T09:02:59;99290.06;;;28.96;35.51
11212;BME280;5663;50.864;12.096;2023-07-13T09:44:59;99298.78;;;28.70;33.67
11212;BME280;5663;50.864;12.096;2023-07-13T09:47:59;99307.50;;;28.51;33.70
11212;BME280;5663;50.864;12.096;2023-07-13T09:50:33;99317.72;;;28.40;33.99
11212;BME280;5663;50.864;12.096;2023-07-13T10:04:29;99314.09;;;27.77;34.86
11212;BME280;5663;50.864;12.096;2023-07-13T11:52:25;99242.25;;;31.82;26.83
11212;BME280;5663;50.864;12.096;2023-07-13T11:55:55;99262.59;;;31.71;26.01
11212;BME280;5663;50.864;12.096;2023-07-13T11:58:28;99247.09;;;31.42;26.25
11212;BME280;5663;50.864;12.096;2023-07-13T12:01:04;99273.19;;;31.34;26.76
11212;BME280;5663;50.864;12.096;2023-07-13T12:03:35;99264.53;;;31.32;26.98
11212;BME280;5663;50.864;12.096;2023-07-13T12:06:15;99263.66;;;31.70;26.59
11212;BME280;5663;50.864;12.096;2023-07-13T12:08:50;99270.09;;;32.19;24.74
11212;BME280;5663;50.864;12.096;2023-07-13T12:11:22;99257.50;;;32.38;24.84
11212;BME280;5663;50.864;12.096;2023-07-13T12:14:02;99251.44;;;32.24;24.41
11212;BME280;5663;50.864;12.096;2023-07-13T12:17:16;99253.31;;;31.99;24.60
11212;BME280;5663;50.864;12.096;2023-07-13T12:20:20;99258.13;;;31.65;25.34
11212;BME280;5663;50.864;12.096;2023-07-13T12:25:58;99267.81;;;31.34;24.67
11212;BME280;5663;50.864;12.096;2023-07-13T12:28:36;99261.59;;;31.40;25.41
11212;BME280;5663;50.864;12.096;2023-07-13T12:31:29;99247.00;;;31.55;24.84
11212;BME280;5663;50.864;12.096;2023-07-13T12:37:54;99251.50;;;32.43;24.48
11212;BME280;5663;50.864;12.096;2023-07-13T12:40:41;99236.78;;;32.38;24.40
11212;BME280;5663;50.864;12.096;2023-07-13T12:43:58;99258.84;;;32.72;22.82
11212;BME280;5663;50.864;12.096;2023-07-13T12:47:09;99262.56;;;32.71;23.30
11212;BME280;5663;50.864;12.096;2023-07-13T12:53:47;99262.97;;;33.23;23.81
11212;BME280;5663;50.864;12.096;2023-07-13T12:56:32;99253.53;;;33.32;23.33
11212;BME280;5663;50.864;12.096;2023-07-13T13:20:37;99273.28;;;31.08;24.07
11212;BME280;5663;50.864;12.096;2023-07-13T13:23:23;99274.97;;;31.02;25.38
11212;BME280;5663;50.864;12.096;2023-07-13T13:26:14;99267.88;;;31.14;24.16
11212;BME280;5663;50.864;12.096;2023-07-13T13:29:20;99277.72;;;31.40;24.41
11212;BME280;5663;50.864;12.096;2023-07-13T13:35:20;99278.00;;;31.64;24.37
11212;BME280;5663;50.864;12.096;2023-07-13T13:52:13;99266.97;;;31.72;24.67
11212;BME280;5663;50.864;12.096;2023-07-13T13:54:47;99287.25;;;32.00;24.20
11212;BME280;5663;50.864;12.096;2023-07-13T14:00:41;99287.03;;;31.70;24.45
11212;BME280;5663;50.864;12.096;2023-07-13T14:03:15;99290.72;;;31.75;24.34
11212;BME280;5663;50.864;12.096;2023-07-13T14:05:53;99285.44;;;31.62;23.22
11212;BME280;5663;50.864;12.096;2023-07-13T14:08:25;99282.03;;;31.42;23.89
11212;BME280;5663;50.864;12.096;2023-07-13T14:10:58;99278.97;;;31.31;24.38
11212;BME280;5663;50.864;12.096;2023-07-13T14:13:30;99281.00;;;31.43;23.61
11212;BME280;5663;50.864;12.096;2023-07-13T14:16:51;99290.13;;;31.73;24.23
11212;BME280;5663;50.864;12.096;2023-07-13T14:23:55;99279.91;;;31.88;24.04
11212;BME280;5663;50.864;12.096;2023-07-13T14:47:23;99290.22;;;32.42;23.31
11212;BME280;5663;50.864;12.096;2023-07-13T14:56:16;99289.00;;;32.37;23.05
11212;BME280;5663;50.864;12.096;2023-07-13T16:56:55;99324.31;;;29.01;25.65
11212;BME280;5663;50.864;12.096;2023-07-13T17:00:21;99318.47;;;28.90;26.16
11212;BME280;5663;50.864;12.096;2023-07-13T17:02:56;99319.88;;;28.86;26.24
11212;BME280;5663;50.864;12.096;2023-07-13T17:05:42;99312.00;;;28.78;26.11
11212;BME280;5663;50.864;12.096;2023-07-13T17:08:29;99310.59;;;28.82;26.50
11212;BME280;5663;50.864;12.096;2023-07-13T17:11:02;99322.13;;;28.83;26.39
11212;BME280;5663;50.864;12.096;2023-07-13T17:13:36;99316.97;;;28.81;26.25
11212;BME280;5663;50.864;12.096;2023-07-13T17:16:15;99320.91;;;28.85;27.18
11212;BME280;5663;50.864;12.096;2023-07-13T17:18:44;99320.91;;;28.85;27.18
11212;BME280;5663;50.864;12.096;2023-07-13T17:21:18;99331.81;;;28.84;27.25
11212;BME280;5663;50.864;12.096;2023-07-13T17:24:07;99323.31;;;28.73;26.56
11212;BME280;5663;50.864;12.096;2023-07-13T17:26:49;99328.56;;;28.60;26.88
11212;BME280;5663;50.864;12.096;2023-07-13T17:29:54;99327.72;;;28.53;26.87
11212;BME280;5663;50.864;12.096;2023-07-13T17:33:21;99330.19;;;28.55;27.06
11212;BME280;5663;50.864;12.096;2023-07-13T17:46:58;99341.56;;;28.63;27.54
11212;BME280;5663;50.864;12.096;2023-07-13T19:25:14;99434.88;;;25.44;34.67
11212;BME280;5663;50.864;12.096;2023-07-13T19:43:54;99478.34;;;24.30;37.87
11212;BME280;5663;50.864;12.096;2023-07-13T19:50:38;99485.25;;;23.99;38.63
11212;BME280;5663;50.864;12.096;2023-07-13T19:53:41;99488.00;;;23.89;38.93
11212;BME280;5663;50.864;12.096;2023-07-13T19:56:35;99492.63;;;23.79;39.17
11212;BME280;5663;50.864;12.096;2023-07-13T20:09:27;99505.41;;;23.23;40.38
11212;BME280;5663;50.864;12.096;2023-07-13T20:12:22;99511.34;;;23.17;40.21
11212;BME280;5663;50.864;12.096;2023-07-13T20:18:45;99514.03;;;22.99;40.99
11212;BME280;5663;50.864;12.096;2023-07-13T20:21:43;99481.81;;;22.76;40.93
11212;BME280;5663;50.864;12.096;2023-07-13T20:56:40;99563.84;;;22.42;42.50
11212;BME280;5663;50.864;12.096;2023-07-13T21:38:12;99640.44;;;21.98;45.25
11212;BME280;5663;50.864;12.096;2023-07-13T22:22:42;99652.22;;;20.89;47.92
11212;BME280;5663;50.864;12.096;2023-07-13T22:26:23;99622.69;;;20.55;48.55
11212;BME280;5663;50.864;12.096;2023-07-13T22:32:36;99655.38;;;20.63;48.62
11212;BME280;5663;50.864;12.096;2023-07-13T22:35:26;99655.81;;;20.59;48.59
11212;BME280;5663;50.864;12.096;2023-07-13T22:38:17;99633.72;;;20.39;49.25
11212;BME280;5663;50.864;12.096;2023-07-13T22:40:56;99665.16;;;20.42;50.00
11212;BME280;5663;50.864;12.096;2023-07-13T22:43:53;99659.53;;;20.26;50.06
11212;BME280;5663;50.864;12.096;2023-07-13T22:46:26;99669.34;;;20.14;50.63
11212;BME280;5663;50.864;12.096;2023-07-13T22:49:12;99662.22;;;20.05;50.82
11212;BME280;5663;50.864;12.096;2023-07-13T22:51:47;99658.25;;;19.89;50.82
11212;BME280;5663;50.864;12.096;2023-07-13T22:54:18;99663.78;;;19.86;51.28
11212;BME280;5663;50.864;12.096;2023-07-13T22:56:55;99665.16;;;19.81;51.22
11212;BME280;5663;50.864;12.096;2023-07-13T22:59:29;99671.41;;;19.80;51.32
11212;BME280;5663;50.864;12.096;2023-07-13T23:01:59;99670.69;;;19.78;51.46
11212;BME280;5663;50.864;12.096;2023-07-13T23:04:36;99678.59;;;19.78;51.66
11212;BME280;5663;50.864;12.096;2023-07-13T23:07:25;99675.94;;;19.78;51.40
11212;BME280;5663;50.864;12.096;2023-07-13T23:10:04;99669.25;;;19.74;51.45
11212;BME280;5663;50.864;12.096;2023-07-13T23:12:44;99673.56;;;19.75;51.53
11212;BME280;5663;50.864;12.096;2023-07-13T23:15:52;99674.28;;;19.77;51.53
11212;BME280;5663;50.864;12.096;2023-07-13T23:18:26;99677.91;;;19.76;51.77
11212;BME280;5663;50.864;12.096;2023-07-13T23:21:19;99679.81;;;19.74;51.78
11212;BME280;5663;50.864;12.096;2023-07-13T23:24:13;99672.28;;;19.69;51.61
11212;BME280;5663;50.864;12.096;2023-07-13T23:27:03;99673.13;;;19.69;51.76
11212;BME280;5663;50.864;12.096;2023-07-13T23:30:00;99674.09;;;19.68;51.93
11212;BME280;5663;50.864;12.096;2023-07-13T23:33:00;99677.22;;;19.62;52.08
11212;BME280;5663;50.864;12.096;2023-07-13T23:35:33;99671.97;;;19.62;52.04
11212;BME280;5663;50.864;12.096;2023-07-13T23:38:07;99670.50;;;19.58;52.36
11212;BME280;5663;50.864;12.096;2023-07-13T23:40:41;99654.75;;;19.47;52.57
11212;BME280;5663;50.864;12.096;2023-07-13T23:43:19;99676.31;;;19.52;52.46
11212;BME280;5663;50.864;12.096;2023-07-13T23:45:49;99671.88;;;19.53;52.40
11212;BME280;5663;50.864;12.096;2023-07-13T23:48:37;99679.44;;;19.46;52.85
11212;BME280;5663;50.864;12.096;2023-07-13T23:54:53;99661.78;;;19.26;53.14
11212;BME280;5663;50.864;12.096;2023-07-13T23:57:45;99680.84;;;19.29;53.56
